Time;durP1;ratioP1;P1;durP2;ratioP2;P2;SDS_P1;SDS_P2;PMS_P1;PMS_P2;Temp;Humidity;BMP_temperature;BMP_pressure;BME280_temperature;BME280_humidity;BME280_pressure;Samples;Min_cycle;Max_cycle;Signal;HPM_P1;HPM_P2
2023/04/11 08:18:11;;;;;;;6.78;6.03;;;;;;;;;;6272633;22;20433;-81
2023/04/11 08:20:39;;;;;;;9.10;6.88;;;;;;;;;;6278460;22;20007;-80
2023/04/11 08:23:06;;;;;;;9.45;7.47;;;;;;;;;;6277945;22;20000;-80
2023/04/11 08:25:32;;;;;;;8.43;7.63;;;;;;;;;;6278433;22;20003;-80
2023/04/11 08:27:57;;;;;;;8.15;7.18;;;;;;;;;;6276690;22;20010;-79
2023/04/11 08:30:23;;;;;;;9.32;7.18;;;;;;;;;;6278488;22;20076;-82
2023/04/11 08:32:49;;;;;;;9.55;7.63;;;;;;;;;;6278395;22;20000;-82
2023/04/11 08:35:14;;;;;;;10.68;7.68;;;;;;;;;;6278412;22;20358;-82
2023/04/11 08:37:40;;;;;;;8.05;6.80;;;;;;;;;;6278309;22;20055;-82
2023/04/11 08:40:06;;;;;;;10.93;7.80;;;;;;;;;;6278361;22;20000;-83
2023/04/11 08:42:32;;;;;;;8.98;8.00;;;;;;;;;;6278150;22;20087;-84
2023/04/11 08:45:07;;;;;;;7.68;6.78;;;;;;;;;;6278208;22;20078;-84
2023/04/11 08:47:33;;;;;;;9.45;7.90;;;;;;;;;;6278245;22;20007;-84
2023/04/11 08:49:59;;;;;;;8.05;7.25;;;;;;;;;;6278248;22;20010;-83
2023/04/11 08:52:24;;;;;;;7.82;6.63;;;;;;;;;;6278246;22;20330;-86
2023/04/11 08:54:56;;;;;;;7.75;6.30;;;;;;;;;;6278007;22;20004;-84
2023/04/11 08:57:27;;;;;;;8.75;7.05;;;;;;;;;;6278312;22;20034;-84
2023/04/11 08:59:54;;;;;;;8.27;7.22;;;;;;;;;;6278125;22;20007;-84
2023/04/11 09:02:20;;;;;;;10.00;6.93;;;;;;;;;;6278369;22;20075;-83
2023/04/11 09:04:46;;;;;;;7.57;6.82;;;;;;;;;;6278063;22;20438;-83
2023/04/11 09:07:12;;;;;;;10.30;7.80;;;;;;;;;;6278041;22;20011;-83
2023/04/11 09:09:38;;;;;;;7.70;6.50;;;;;;;;;;6277853;22;20419;-83
2023/04/11 09:12:04;;;;;;;10.02;7.20;;;;;;;;;;6276335;22;20042;-83
2023/04/11 09:14:30;;;;;;;10.77;6.43;;;;;;;;;;6278116;22;20079;-83
2023/04/11 09:16:58;;;;;;;8.73;7.05;;;;;;;;;;6278181;22;20004;-83
2023/04/11 09:19:28;;;;;;;9.00;6.65;;;;;;;;;;6277687;22;20161;-83
2023/04/11 09:21:59;;;;;;;9.38;6.88;;;;;;;;;;6277781;22;20010;-83
2023/04/11 09:24:25;;;;;;;9.05;7.13;;;;;;;;;;6277739;22;20018;-83
2023/04/11 09:27:06;;;;;;;9.00;7.40;;;;;;;;;;6278081;22;20007;-83
2023/04/11 09:29:40;;;;;;;11.70;7.50;;;;;;;;;;6277780;22;20326;-83
2023/04/11 09:32:06;;;;;;;7.25;6.00;;;;;;;;;;6277749;22;20004;-83
2023/04/11 09:34:33;;;;;;;8.23;6.15;;;;;;;;;;6277433;22;20088;-83
2023/04/11 09:37:00;;;;;;;7.15;5.75;;;;;;;;;;6278183;22;20004;-87
2023/04/11 09:39:28;;;;;;;10.38;7.82;;;;;;;;;;6277452;22;20000;-89
2023/04/11 09:41:53;;;;;;;12.68;9.07;;;;;;;;;;6277729;22;20086;-85
2023/04/11 09:44:33;;;;;;;10.38;7.82;;;;;;;;;;6277623;22;20049;-86
2023/04/11 09:46:58;;;;;;;9.93;7.85;;;;;;;;;;6277650;22;20481;-89
2023/04/11 09:49:24;;;;;;;9.45;7.45;;;;;;;;;;6277456;22;20038;-89
2023/04/11 09:51:51;;;;;;;13.40;8.55;;;;;;;;;;6278035;22;20004;-90
2023/04/11 09:54:19;;;;;;;8.45;6.75;;;;;;;;;;6276523;22;20074;-90
2023/04/11 09:56:44;;;;;;;10.82;8.60;;;;;;;;;;6277543;22;20003;-90
2023/04/11 09:59:10;;;;;;;11.70;8.93;;;;;;;;;;6277807;22;20010;-91
2023/04/11 10:01:38;;;;;;;9.52;7.47;;;;;;;;;;6276020;22;20445;-89
2023/04/11 10:04:03;;;;;;;9.57;7.57;;;;;;;;;;6277709;22;20004;-86
2023/04/11 10:07:07;;;;;;;9.63;7.53;;;;;;;;;;6277636;22;20078;-93
2023/04/11 10:09:38;;;;;;;10.95;8.93;;;;;;;;;;6216157;22;20407;-89
2023/04/11 10:12:04;;;;;;;10.02;8.00;;;;;;;;;;6277294;22;20007;-87
2023/04/11 10:14:35;;;;;;;11.05;8.45;;;;;;;;;;6279494;22;20069;-84
2023/04/11 10:17:11;;;;;;;12.85;8.68;;;;;;;;;;6277685;22;20057;-92
2023/04/11 10:19:36;;;;;;;10.00;7.60;;;;;;;;;;6277403;22;20091;-86
2023/04/11 10:22:02;;;;;;;11.57;9.65;;;;;;;;;;6278521;22;20000;-87
2023/04/11 10:24:27;;;;;;;11.77;9.73;;;;;;;;;;6277163;22;20373;-89
2023/04/11 10:26:55;;;;;;;12.05;8.90;;;;;;;;;;6277614;22;20034;-86
2023/04/11 10:29:32;;;;;;;11.77;8.85;;;;;;;;;;6277555;22;19999;-89
2023/04/11 10:32:16;;;;;;;11.52;8.75;;;;;;;;;;6277240;22;19999;-86
2023/04/11 10:34:50;;;;;;;11.20;8.85;;;;;;;;;;6275392;22;20377;-83
2023/04/11 10:37:18;;;;;;;9.43;7.28;;;;;;;;;;6277034;22;20004;-83
2023/04/11 10:39:52;;;;;;;11.73;9.75;;;;;;;;;;6277481;22;20590;-84
2023/04/11 10:42:32;;;;;;;12.57;9.60;;;;;;;;;;6277006;22;20049;-84
2023/04/11 10:45:25;;;;;;;12.82;9.63;;;;;;;;;;6277106;22;20000;-84
2023/04/11 10:48:04;;;;;;;14.52;10.50;;;;;;;;;;6276870;22;19999;-85
2023/04/11 10:50:30;;;;;;;13.75;10.65;;;;;;;;;;6277222;22;20006;-84
2023/04/11 10:53:03;;;;;;;11.07;9.07;;;;;;;;;;6277067;22;20000;-84
2023/04/11 10:55:38;;;;;;;14.63;11.23;;;;;;;;;;6277459;22;20003;-88
2023/04/11 10:58:08;;;;;;;11.93;9.30;;;;;;;;;;6275132;22;20015;-86
2023/04/11 11:00:52;;;;;;;13.50;10.65;;;;;;;;;;6277233;22;20322;-90
2023/04/11 11:03:28;;;;;;;13.40;10.90;;;;;;;;;;6277107;22;20000;-84
2023/04/11 11:06:05;;;;;;;12.38;8.98;;;;;;;;;;6275396;22;20173;-84
2023/04/11 11:08:40;;;;;;;12.05;9.65;;;;;;;;;;6276960;22;20439;-84
2023/04/11 11:11:10;;;;;;;13.60;9.40;;;;;;;;;;6276872;22;19999;-84
2023/04/11 11:13:52;;;;;;;17.00;10.32;;;;;;;;;;6277121;22;20004;-83
2023/04/11 11:16:21;;;;;;;16.23;10.95;;;;;;;;;;6277110;22;20004;-83
2023/04/11 11:18:50;;;;;;;14.00;9.77;;;;;;;;;;6276487;22;20073;-84
2023/04/11 11:21:19;;;;;;;11.82;9.60;;;;;;;;;;6276964;22;20506;-84
2023/04/11 11:23:54;;;;;;;12.25;9.48;;;;;;;;;;6277537;22;20003;-84
2023/04/11 11:26:20;;;;;;;10.85;8.15;;;;;;;;;;6277142;22;20004;-84
2023/04/11 11:28:47;;;;;;;16.52;11.10;;;;;;;;;;6277113;22;20030;-84
2023/04/11 11:31:12;;;;;;;17.25;11.90;;;;;;;;;;6276703;22;20011;-84
2023/04/11 11:33:40;;;;;;;15.88;11.90;;;;;;;;;;6275264;22;20008;-84
2023/04/11 11:36:07;;;;;;;16.17;11.23;;;;;;;;;;6276902;22;20061;-84
2023/04/11 11:38:32;;;;;;;11.95;9.13;;;;;;;;;;6276768;22;20054;-84
2023/04/11 11:40:58;;;;;;;16.33;11.82;;;;;;;;;;6277026;22;20358;-84
2023/04/11 11:43:26;;;;;;;16.95;10.68;;;;;;;;;;6276893;22;20426;-84
2023/04/11 17:09:21;;;;;;;9.48;8.07;;;;;;;;;;6317653;22;20315;-81
2023/04/11 17:11:46;;;;;;;10.05;8.18;;;;;;;;;;6309479;22;20086;-81
2023/04/11 17:14:12;;;;;;;8.05;7.25;;;;;;;;;;6309280;22;20391;-80
2023/04/11 17:16:37;;;;;;;7.93;7.13;;;;;;;;;;6308876;22;20430;-81
2023/04/11 17:19:03;;;;;;;8.60;7.70;;;;;;;;;;6308402;22;20014;-80
2023/04/11 17:21:28;;;;;;;9.90;8.52;;;;;;;;;;6308495;22;20088;-82
2023/04/11 17:23:53;;;;;;;8.45;6.72;;;;;;;;;;6308733;22;19995;-82
2023/04/11 17:26:19;;;;;;;7.60;6.80;;;;;;;;;;6306986;22;20003;-80
2023/04/11 17:28:45;;;;;;;9.10;7.80;;;;;;;;;;6308652;22;20003;-82
2023/04/11 17:31:12;;;;;;;11.13;9.65;;;;;;;;;;6308638;22;20003;-80
2023/04/11 17:33:38;;;;;;;10.05;8.40;;;;;;;;;;6309160;22;20000;-79
2023/04/11 17:36:04;;;;;;;8.30;7.35;;;;;;;;;;6308404;22;20026;-80
2023/04/11 17:38:30;;;;;;;7.47;6.78;;;;;;;;;;6308764;22;20011;-78
2023/04/11 17:40:56;;;;;;;7.78;6.97;;;;;;;;;;6308678;22;20370;-79
2023/04/11 17:43:22;;;;;;;7.88;6.97;;;;;;;;;;6308505;22;20429;-79
2023/04/11 17:45:48;;;;;;;7.25;6.55;;;;;;;;;;6308850;22;20003;-80
2023/04/11 17:48:13;;;;;;;7.80;7.00;;;;;;;;;;6308704;22;20303;-80
2023/04/11 17:50:39;;;;;;;7.80;6.97;;;;;;;;;;6308733;22;20433;-80
2023/04/11 17:53:04;;;;;;;21.92;12.73;;;;;;;;;;6308489;22;20014;-80
2023/04/11 17:55:29;;;;;;;24.92;15.23;;;;;;;;;;6308303;22;20003;-83
2023/04/11 17:57:56;;;;;;;47.25;23.02;;;;;;;;;;6308394;22;20007;-82
2023/04/11 18:00:22;;;;;;;40.10;20.33;;;;;;;;;;6308839;22;20070;-83
2023/04/11 18:02:57;;;;;;;101.90;38.85;;;;;;;;;;6308945;22;20457;-84
2023/04/11 18:05:27;;;;;;;53.42;30.00;;;;;;;;;;6308500;22;20091;-83
2023/04/11 18:07:57;;;;;;;24.80;17.60;;;;;;;;;;6308772;22;20010;-82
2023/04/11 18:10:24;;;;;;;30.23;27.33;;;;;;;;;;6308496;22;20030;-83
2023/04/11 18:12:52;;;;;;;19.23;17.42;;;;;;;;;;6308520;22;20137;-82
2023/04/11 18:15:20;;;;;;;11.70;10.57;;;;;;;;;;6308588;22;20023;-82
2023/04/11 18:17:45;;;;;;;9.68;8.68;;;;;;;;;;6308528;22;20361;-82
2023/04/11 18:20:12;;;;;;;9.98;8.80;;;;;;;;;;6308279;22;19999;-82
2023/04/11 18:22:43;;;;;;;10.55;8.98;;;;;;;;;;6308347;22;20000;-84
2023/04/11 18:25:10;;;;;;;8.52;7.57;;;;;;;;;;6308590;22;20009;-82
2023/04/11 18:27:37;;;;;;;10.02;8.30;;;;;;;;;;6308515;22;20003;-82
2023/04/11 18:30:09;;;;;;;9.35;7.82;;;;;;;;;;6308286;22;19999;-83
2023/04/11 18:32:35;;;;;;;9.30;8.30;;;;;;;;;;6308310;22;19999;-83
2023/04/11 18:35:03;;;;;;;9.43;8.38;;;;;;;;;;6308061;22;20440;-83
2023/04/11 18:37:30;;;;;;;10.27;8.40;;;;;;;;;;6308485;22;19996;-82
2023/04/11 18:39:55;;;;;;;10.85;8.85;;;;;;;;;;6308098;22;20007;-82
2023/04/11 18:42:21;;;;;;;10.02;9.02;;;;;;;;;;6308398;22;20031;-82
2023/04/11 18:44:46;;;;;;;11.02;8.40;;;;;;;;;;6308223;22;20137;-82
2023/04/11 18:47:14;;;;;;;9.63;8.60;;;;;;;;;;6308031;22;20007;-83
2023/04/11 18:49:40;;;;;;;12.48;9.93;;;;;;;;;;6308274;22;20007;-83
2023/04/11 18:52:06;;;;;;;16.02;11.57;;;;;;;;;;6308019;22;20003;-82
2023/04/11 18:54:32;;;;;;;10.15;9.05;;;;;;;;;;6308367;22;20000;-83
2023/04/11 18:56:57;;;;;;;13.65;10.80;;;;;;;;;;6308095;22;20048;-82
2023/04/11 18:59:24;;;;;;;13.90;12.13;;;;;;;;;;6307950;22;20088;-83
2023/04/11 19:01:50;;;;;;;13.52;10.90;;;;;;;;;;6308196;22;20053;-82
2023/04/11 19:04:16;;;;;;;13.80;11.85;;;;;;;;;;6308230;22;20003;-82
2023/04/11 19:06:42;;;;;;;13.07;10.30;;;;;;;;;;6307941;22;20018;-82
2023/04/11 19:09:08;;;;;;;13.05;10.80;;;;;;;;;;6309771;22;20065;-83
2023/04/11 19:11:34;;;;;;;13.15;11.68;;;;;;;;;;6310318;22;20421;-84
2023/04/11 19:14:00;;;;;;;14.82;11.27;;;;;;;;;;6310330;22;20006;-83
2023/04/11 19:16:25;;;;;;;13.55;11.05;;;;;;;;;;6310539;22;20010;-79
2023/04/11 19:18:51;;;;;;;13.55;11.20;;;;;;;;;;6308657;22;20373;-81
2023/04/11 19:21:16;;;;;;;11.75;10.55;;;;;;;;;;6310257;22;20449;-79
2023/04/11 19:23:42;;;;;;;17.08;12.13;;;;;;;;;;6310305;22;20010;-82
2023/04/11 19:26:08;;;;;;;24.50;17.42;;;;;;;;;;6310672;22;20003;-79
2023/04/11 19:28:33;;;;;;;28.52;19.52;;;;;;;;;;6310418;22;20003;-80
2023/04/11 19:30:59;;;;;;;27.83;19.95;;;;;;;;;;6309035;22;20422;-81
2023/04/11 19:33:24;;;;;;;12.93;11.07;;;;;;;;;;6309915;22;20007;-78
2023/04/11 19:35:51;;;;;;;15.88;12.40;;;;;;;;;;6310069;22;20004;-81
2023/04/11 19:38:17;;;;;;;16.20;12.38;;;;;;;;;;6311960;22;20038;-81
2023/04/11 19:40:42;;;;;;;13.57;10.40;;;;;;;;;;6310287;22;20330;-81
2023/04/11 19:43:08;;;;;;;10.85;9.18;;;;;;;;;;6310069;22;20399;-81
2023/04/11 19:45:33;;;;;;;10.15;9.00;;;;;;;;;;6310169;22;20373;-81
2023/04/11 19:47:59;;;;;;;9.27;8.27;;;;;;;;;;6310191;22;19999;-82
2023/04/11 19:50:24;;;;;;;8.48;7.57;;;;;;;;;;6308087;22;20011;-82
2023/04/11 19:52:55;;;;;;;9.63;7.88;;;;;;;;;;6310256;22;19999;-81
2023/04/11 19:55:21;;;;;;;9.43;8.52;;;;;;;;;;6310144;22;20120;-79
2023/04/11 19:57:46;;;;;;;10.00;8.77;;;;;;;;;;6309952;22;20003;-80
2023/04/11 20:00:12;;;;;;;8.60;7.70;;;;;;;;;;6309947;22;20027;-80
2023/04/11 20:02:43;;;;;;;8.60;7.70;;;;;;;;;;6310107;22;20418;-80
2023/04/11 20:05:16;;;;;;;8.43;6.97;;;;;;;;;;6309976;22;20007;-81
2023/04/11 20:07:42;;;;;;;7.95;7.15;;;;;;;;;;6309627;22;20021;-80
2023/04/11 20:10:09;;;;;;;8.98;7.38;;;;;;;;;;6309302;22;20052;-80
2023/04/11 20:12:35;;;;;;;11.88;8.15;;;;;;;;;;6309807;22;20078;-81
2023/04/11 20:15:00;;;;;;;11.00;8.40;;;;;;;;;;6309762;22;19999;-80
2023/04/11 20:17:25;;;;;;;9.40;7.70;;;;;;;;;;6309439;22;19999;-81
2023/04/11 20:19:53;;;;;;;8.90;8.00;;;;;;;;;;6309934;22;20011;-81
2023/04/11 20:22:20;;;;;;;9.55;8.02;;;;;;;;;;6309672;22;20331;-81
2023/04/11 20:24:46;;;;;;;10.85;8.90;;;;;;;;;;6307990;22;20074;-81
